sensor_id;sensor_type;location;lat;lon;timestamp;P1;durP1;ratioP1;P2;durP2;ratioP2
17842;SDS011;69286;48.222;16.332;2023-06-26T00:00:46;6.00;;;5.00;;
17842;SDS011;69286;48.222;16.332;2023-06-26T00:03:13;7.10;;;5.03;;
17842;SDS011;69286;48.222;16.332;2023-06-26T00:05:40;6.67;;;5.23;;
17842;SDS011;69286;48.222;16.332;2023-06-26T00:08:07;5.93;;;5.20;;
17842;SDS011;69286;48.222;16.332;2023-06-26T00:10:34;6.97;;;4.80;;
17842;SDS011;69286;48.222;16.332;2023-06-26T00:13:03;6.63;;;5.30;;
17842;SDS011;69286;48.222;16.332;2023-06-26T00:15:30;8.77;;;6.00;;
17842;SDS011;69286;48.222;16.332;2023-06-26T00:17:57;10.90;;;4.97;;
17842;SDS011;69286;48.222;16.332;2023-06-26T00:20:24;8.20;;;4.83;;
17842;SDS011;69286;48.222;16.332;2023-06-26T00:22:51;6.57;;;5.17;;
17842;SDS011;69286;48.222;16.332;2023-06-26T00:25:19;5.50;;;4.50;;
17842;SDS011;69286;48.222;16.332;2023-06-26T00:27:46;7.23;;;4.97;;
17842;SDS011;69286;48.222;16.332;2023-06-26T00:30:14;5.47;;;4.60;;
17842;SDS011;69286;48.222;16.332;2023-06-26T00:32:41;7.80;;;5.57;;
17842;SDS011;69286;48.222;16.332;2023-06-26T00:35:08;7.07;;;5.27;;
17842;SDS011;69286;48.222;16.332;2023-06-26T00:37:35;5.33;;;4.60;;
17842;SDS011;69286;48.222;16.332;2023-06-26T00:40:02;7.07;;;4.93;;
17842;SDS011;69286;48.222;16.332;2023-06-26T00:42:31;9.87;;;4.93;;
17842;SDS011;69286;48.222;16.332;2023-06-26T00:44:58;7.53;;;5.53;;
17842;SDS011;69286;48.222;16.332;2023-06-26T00:47:27;6.50;;;4.77;;
17842;SDS011;69286;48.222;16.332;2023-06-26T00:49:54;7.17;;;4.70;;
17842;SDS011;69286;48.222;16.332;2023-06-26T00:52:22;9.77;;;5.40;;
17842;SDS011;69286;48.222;16.332;2023-06-26T00:54:49;7.20;;;5.30;;
17842;SDS011;69286;48.222;16.332;2023-06-26T00:57:17;10.57;;;5.60;;
17842;SDS011;69286;48.222;16.332;2023-06-26T00:59:44;6.37;;;5.10;;
17842;SDS011;69286;48.222;16.332;2023-06-26T01:02:11;8.07;;;4.70;;
17842;SDS011;69286;48.222;16.332;2023-06-26T01:04:46;5.97;;;4.70;;
17842;SDS011;69286;48.222;16.332;2023-06-26T01:07:14;7.00;;;4.93;;
17842;SDS011;69286;48.222;16.332;2023-06-26T01:09:44;9.30;;;4.70;;
17842;SDS011;69286;48.222;16.332;2023-06-26T01:12:12;6.90;;;4.90;;
17842;SDS011;69286;48.222;16.332;2023-06-26T01:14:39;8.40;;;5.17;;
17842;SDS011;69286;48.222;16.332;2023-06-26T01:17:06;6.40;;;4.30;;
17842;SDS011;69286;48.222;16.332;2023-06-26T01:19:37;5.47;;;4.60;;
17842;SDS011;69286;48.222;16.332;2023-06-26T01:22:09;6.97;;;5.00;;
17842;SDS011;69286;48.222;16.332;2023-06-26T01:24:43;6.13;;;4.63;;
17842;SDS011;69286;48.222;16.332;2023-06-26T01:27:20;6.43;;;4.83;;
17842;SDS011;69286;48.222;16.332;2023-06-26T01:29:49;5.37;;;4.63;;
17842;SDS011;69286;48.222;16.332;2023-06-26T01:32:17;6.57;;;4.90;;
17842;SDS011;69286;48.222;16.332;2023-06-26T01:34:45;5.70;;;4.87;;
17842;SDS011;69286;48.222;16.332;2023-06-26T01:37:12;7.03;;;5.40;;
17842;SDS011;69286;48.222;16.332;2023-06-26T01:39:39;6.33;;;5.00;;
17842;SDS011;69286;48.222;16.332;2023-06-26T01:42:06;6.90;;;4.00;;
17842;SDS011;69286;48.222;16.332;2023-06-26T01:44:36;12.03;;;4.97;;
17842;SDS011;69286;48.222;16.332;2023-06-26T01:47:07;8.13;;;5.30;;
17842;SDS011;69286;48.222;16.332;2023-06-26T01:49:42;5.33;;;4.50;;
17842;SDS011;69286;48.222;16.332;2023-06-26T01:52:14;5.93;;;4.97;;
17842;SDS011;69286;48.222;16.332;2023-06-26T01:54:49;8.13;;;4.77;;
17842;SDS011;69286;48.222;16.332;2023-06-26T01:57:25;7.50;;;4.90;;
17842;SDS011;69286;48.222;16.332;2023-06-26T01:59:54;7.73;;;5.50;;
17842;SDS011;69286;48.222;16.332;2023-06-26T02:02:22;7.00;;;4.90;;
17842;SDS011;69286;48.222;16.332;2023-06-26T02:04:50;8.17;;;5.20;;
17842;SDS011;69286;48.222;16.332;2023-06-26T02:07:18;6.13;;;5.00;;
17842;SDS011;69286;48.222;16.332;2023-06-26T02:09:45;7.60;;;4.93;;
17842;SDS011;69286;48.222;16.332;2023-06-26T02:12:12;6.40;;;4.67;;
17842;SDS011;69286;48.222;16.332;2023-06-26T02:14:39;6.70;;;4.90;;
17842;SDS011;69286;48.222;16.332;2023-06-26T02:17:08;5.90;;;5.03;;
17842;SDS011;69286;48.222;16.332;2023-06-26T02:19:35;7.13;;;4.87;;
17842;SDS011;69286;48.222;16.332;2023-06-26T02:22:04;9.80;;;5.03;;
17842;SDS011;69286;48.222;16.332;2023-06-26T02:24:31;5.37;;;4.30;;
17842;SDS011;69286;48.222;16.332;2023-06-26T02:26:59;8.10;;;4.60;;
17842;SDS011;69286;48.222;16.332;2023-06-26T02:29:26;6.30;;;4.90;;
17842;SDS011;69286;48.222;16.332;2023-06-26T02:31:53;8.27;;;4.50;;
17842;SDS011;69286;48.222;16.332;2023-06-26T02:34:21;10.87;;;5.00;;
17842;SDS011;69286;48.222;16.332;2023-06-26T02:36:49;6.77;;;4.70;;
17842;SDS011;69286;48.222;16.332;2023-06-26T02:39:15;5.23;;;4.40;;
17842;SDS011;69286;48.222;16.332;2023-06-26T02:41:42;7.27;;;5.07;;
17842;SDS011;69286;48.222;16.332;2023-06-26T02:44:10;5.33;;;4.30;;
17842;SDS011;69286;48.222;16.332;2023-06-26T02:46:37;6.33;;;4.27;;
17842;SDS011;69286;48.222;16.332;2023-06-26T02:49:04;8.77;;;4.83;;
17842;SDS011;69286;48.222;16.332;2023-06-26T02:51:32;6.87;;;4.73;;
17842;SDS011;69286;48.222;16.332;2023-06-26T02:54:00;5.60;;;4.73;;
17842;SDS011;69286;48.222;16.332;2023-06-26T02:56:27;8.70;;;4.53;;
17842;SDS011;69286;48.222;16.332;2023-06-26T02:58:54;8.93;;;4.43;;
17842;SDS011;69286;48.222;16.332;2023-06-26T03:01:21;6.70;;;4.37;;
17842;SDS011;69286;48.222;16.332;2023-06-26T03:03:48;7.17;;;5.23;;
17842;SDS011;69286;48.222;16.332;2023-06-26T03:06:15;7.93;;;4.93;;
17842;SDS011;69286;48.222;16.332;2023-06-26T03:08:44;7.50;;;4.97;;
17842;SDS011;69286;48.222;16.332;2023-06-26T03:11:11;9.00;;;5.00;;
17842;SDS011;69286;48.222;16.332;2023-06-26T03:13:38;6.57;;;4.70;;
17842;SDS011;69286;48.222;16.332;2023-06-26T03:16:05;6.43;;;4.70;;
17842;SDS011;69286;48.222;16.332;2023-06-26T03:18:32;5.70;;;4.50;;
17842;SDS011;69286;48.222;16.332;2023-06-26T03:20:59;5.67;;;4.50;;
17842;SDS011;69286;48.222;16.332;2023-06-26T03:23:26;6.77;;;5.03;;
17842;SDS011;69286;48.222;16.332;2023-06-26T03:25:54;7.47;;;5.10;;
17842;SDS011;69286;48.222;16.332;2023-06-26T03:28:21;7.87;;;4.03;;
17842;SDS011;69286;48.222;16.332;2023-06-26T03:30:48;5.97;;;4.37;;
17842;SDS011;69286;48.222;16.332;2023-06-26T03:33:15;9.13;;;4.60;;
17842;SDS011;69286;48.222;16.332;2023-06-26T03:35:42;9.13;;;4.97;;
17842;SDS011;69286;48.222;16.332;2023-06-26T03:38:09;8.07;;;4.83;;
17842;SDS011;69286;48.222;16.332;2023-06-26T03:40:36;6.83;;;5.00;;
17842;SDS011;69286;48.222;16.332;2023-06-26T03:43:05;5.93;;;4.60;;
17842;SDS011;69286;48.222;16.332;2023-06-26T03:45:31;5.97;;;4.33;;
17842;SDS011;69286;48.222;16.332;2023-06-26T03:47:58;7.30;;;5.30;;
17842;SDS011;69286;48.222;16.332;2023-06-26T03:50:26;6.83;;;4.60;;
17842;SDS011;69286;48.222;16.332;2023-06-26T03:52:52;8.20;;;5.03;;
17842;SDS011;69286;48.222;16.332;2023-06-26T03:55:20;5.70;;;4.50;;
17842;SDS011;69286;48.222;16.332;2023-06-26T03:57:48;6.57;;;4.67;;
17842;SDS011;69286;48.222;16.332;2023-06-26T04:00:17;8.93;;;5.70;;
17842;SDS011;69286;48.222;16.332;2023-06-26T04:02:44;9.20;;;5.10;;
17842;SDS011;69286;48.222;16.332;2023-06-26T04:05:11;5.77;;;4.60;;
17842;SDS011;69286;48.222;16.332;2023-06-26T04:07:38;5.63;;;4.77;;
17842;SDS011;69286;48.222;16.332;2023-06-26T04:10:05;8.43;;;5.50;;
17842;SDS011;69286;48.222;16.332;2023-06-26T04:12:34;9.10;;;5.17;;
17842;SDS011;69286;48.222;16.332;2023-06-26T04:15:01;10.23;;;5.07;;
17842;SDS011;69286;48.222;16.332;2023-06-26T04:17:30;8.07;;;4.90;;
17842;SDS011;69286;48.222;16.332;2023-06-26T04:19:57;7.33;;;5.03;;
17842;SDS011;69286;48.222;16.332;2023-06-26T04:22:24;7.70;;;5.43;;
17842;SDS011;69286;48.222;16.332;2023-06-26T04:24:51;8.97;;;5.03;;
17842;SDS011;69286;48.222;16.332;2023-06-26T04:27:18;6.47;;;4.73;;
17842;SDS011;69286;48.222;16.332;2023-06-26T04:29:45;7.53;;;5.00;;
17842;SDS011;69286;48.222;16.332;2023-06-26T04:32:12;8.10;;;5.40;;
17842;SDS011;69286;48.222;16.332;2023-06-26T04:34:40;8.03;;;5.03;;
17842;SDS011;69286;48.222;16.332;2023-06-26T04:37:09;6.33;;;5.00;;
17842;SDS011;69286;48.222;16.332;2023-06-26T04:39:36;9.07;;;4.90;;
17842;SDS011;69286;48.222;16.332;2023-06-26T04:42:03;6.87;;;4.90;;
17842;SDS011;69286;48.222;16.332;2023-06-26T04:44:32;9.93;;;5.60;;
17842;SDS011;69286;48.222;16.332;2023-06-26T04:46:59;7.83;;;5.10;;
17842;SDS011;69286;48.222;16.332;2023-06-26T04:49:26;9.03;;;5.40;;
17842;SDS011;69286;48.222;16.332;2023-06-26T04:51:56;7.77;;;5.23;;
17842;SDS011;69286;48.222;16.332;2023-06-26T04:54:25;9.07;;;5.40;;
17842;SDS011;69286;48.222;16.332;2023-06-26T04:56:52;6.40;;;4.93;;
17842;SDS011;69286;48.222;16.332;2023-06-26T04:59:20;7.90;;;5.00;;
17842;SDS011;69286;48.222;16.332;2023-06-26T05:01:47;7.23;;;5.00;;
17842;SDS011;69286;48.222;16.332;2023-06-26T05:04:14;6.40;;;4.97;;
17842;SDS011;69286;48.222;16.332;2023-06-26T05:06:41;8.17;;;5.77;;
17842;SDS011;69286;48.222;16.332;2023-06-26T05:09:10;8.40;;;4.55;;
17842;SDS011;69286;48.222;16.332;2023-06-26T05:11:37;6.63;;;4.77;;
17842;SDS011;69286;48.222;16.332;2023-06-26T05:14:04;14.07;;;5.43;;
17842;SDS011;69286;48.222;16.332;2023-06-26T05:16:32;13.75;;;5.25;;
17842;SDS011;69286;48.222;16.332;2023-06-26T05:19:00;9.43;;;5.00;;
17842;SDS011;69286;48.222;16.332;2023-06-26T05:21:27;14.85;;;5.30;;
17842;SDS011;69286;48.222;16.332;2023-06-26T05:23:55;8.40;;;4.57;;
17842;SDS011;69286;48.222;16.332;2023-06-26T05:26:25;11.05;;;4.70;;
17842;SDS011;69286;48.222;16.332;2023-06-26T05:28:53;6.65;;;4.63;;
17842;SDS011;69286;48.222;16.332;2023-06-26T05:31:22;6.25;;;4.40;;
17842;SDS011;69286;48.222;16.332;2023-06-26T05:33:49;6.95;;;4.80;;
17842;SDS011;69286;48.222;16.332;2023-06-26T05:36:21;7.30;;;4.75;;
17842;SDS011;69286;48.222;16.332;2023-06-26T05:38:50;6.78;;;3.97;;
17842;SDS011;69286;48.222;16.332;2023-06-26T05:41:17;5.38;;;4.20;;
17842;SDS011;69286;48.222;16.332;2023-06-26T05:43:46;5.38;;;4.40;;
17842;SDS011;69286;48.222;16.332;2023-06-26T05:46:13;4.88;;;4.10;;
17842;SDS011;69286;48.222;16.332;2023-06-26T05:48:40;5.43;;;3.92;;
17842;SDS011;69286;48.222;16.332;2023-06-26T05:51:07;4.30;;;3.90;;
17842;SDS011;69286;48.222;16.332;2023-06-26T05:53:35;4.78;;;3.65;;
17842;SDS011;69286;48.222;16.332;2023-06-26T05:56:03;7.38;;;4.85;;
17842;SDS011;69286;48.222;16.332;2023-06-26T05:58:30;4.70;;;4.25;;
17842;SDS011;69286;48.222;16.332;2023-06-26T06:01:00;5.03;;;4.10;;
17842;SDS011;69286;48.222;16.332;2023-06-26T06:03:27;6.15;;;4.25;;
17842;SDS011;69286;48.222;16.332;2023-06-26T06:05:54;7.30;;;4.93;;
17842;SDS011;69286;48.222;16.332;2023-06-26T06:08:21;10.43;;;4.53;;
17842;SDS011;69286;48.222;16.332;2023-06-26T06:10:48;5.35;;;4.30;;
17842;SDS011;69286;48.222;16.332;2023-06-26T06:13:15;5.13;;;3.70;;
17842;SDS011;69286;48.222;16.332;2023-06-26T06:15:42;6.07;;;4.32;;
17842;SDS011;69286;48.222;16.332;2023-06-26T06:18:10;4.53;;;3.92;;
17842;SDS011;69286;48.222;16.332;2023-06-26T06:20:37;5.25;;;3.80;;
17842;SDS011;69286;48.222;16.332;2023-06-26T06:23:04;8.00;;;4.03;;
17842;SDS011;69286;48.222;16.332;2023-06-26T06:25:32;4.32;;;3.92;;
17842;SDS011;69286;48.222;16.332;2023-06-26T06:27:59;6.15;;;4.13;;
17842;SDS011;69286;48.222;16.332;2023-06-26T06:30:25;4.72;;;4.10;;
17842;SDS011;69286;48.222;16.332;2023-06-26T06:32:53;6.15;;;4.38;;
17842;SDS011;69286;48.222;16.332;2023-06-26T06:35:22;5.78;;;4.30;;
17842;SDS011;69286;48.222;16.332;2023-06-26T06:37:49;5.07;;;4.30;;
17842;SDS011;69286;48.222;16.332;2023-06-26T06:40:16;9.25;;;4.32;;
17842;SDS011;69286;48.222;16.332;2023-06-26T06:42:43;8.85;;;4.53;;
17842;SDS011;69286;48.222;16.332;2023-06-26T06:45:10;6.72;;;4.10;;
17842;SDS011;69286;48.222;16.332;2023-06-26T06:47:37;8.02;;;4.25;;
17842;SDS011;69286;48.222;16.332;2023-06-26T06:50:04;6.90;;;4.22;;
17842;SDS011;69286;48.222;16.332;2023-06-26T06:52:36;9.82;;;4.25;;
17842;SDS011;69286;48.222;16.332;2023-06-26T06:55:03;4.40;;;3.45;;
17842;SDS011;69286;48.222;16.332;2023-06-26T06:57:33;4.25;;;3.85;;
17842;SDS011;69286;48.222;16.332;2023-06-26T07:00:03;3.55;;;3.25;;
17842;SDS011;69286;48.222;16.332;2023-06-26T07:02:33;4.18;;;3.78;;
17842;SDS011;69286;48.222;16.332;2023-06-26T07:05:00;3.72;;;3.30;;
17842;SDS011;69286;48.222;16.332;2023-06-26T07:07:28;6.75;;;3.22;;
17842;SDS011;69286;48.222;16.332;2023-06-26T07:09:58;4.18;;;3.30;;
17842;SDS011;69286;48.222;16.332;2023-06-26T07:12:26;5.55;;;3.70;;
17842;SDS011;69286;48.222;16.332;2023-06-26T07:14:54;6.88;;;3.53;;
17842;SDS011;69286;48.222;16.332;2023-06-26T07:17:21;4.20;;;3.13;;
17842;SDS011;69286;48.222;16.332;2023-06-26T07:19:49;5.07;;;3.08;;
17842;SDS011;69286;48.222;16.332;2023-06-26T07:22:16;3.97;;;3.38;;
17842;SDS011;69286;48.222;16.332;2023-06-26T07:24:45;3.75;;;3.10;;
17842;SDS011;69286;48.222;16.332;2023-06-26T07:27:13;4.57;;;3.50;;
17842;SDS011;69286;48.222;16.332;2023-06-26T07:29:40;3.75;;;3.45;;
17842;SDS011;69286;48.222;16.332;2023-06-26T07:32:08;3.72;;;3.38;;
17842;SDS011;69286;48.222;16.332;2023-06-26T07:34:35;2.80;;;2.60;;
17842;SDS011;69286;48.222;16.332;2023-06-26T07:37:02;5.18;;;3.72;;
17842;SDS011;69286;48.222;16.332;2023-06-26T07:39:29;3.92;;;3.50;;
17842;SDS011;69286;48.222;16.332;2023-06-26T07:41:56;4.78;;;3.20;;
17842;SDS011;69286;48.222;16.332;2023-06-26T07:44:26;7.57;;;2.90;;
17842;SDS011;69286;48.222;16.332;2023-06-26T07:46:53;4.03;;;3.10;;
17842;SDS011;69286;48.222;16.332;2023-06-26T07:49:19;4.05;;;3.15;;
17842;SDS011;69286;48.222;16.332;2023-06-26T07:51:46;3.50;;;3.20;;
17842;SDS011;69286;48.222;16.332;2023-06-26T07:54:14;3.03;;;2.80;;
17842;SDS011;69286;48.222;16.332;2023-06-26T07:56:52;2.55;;;2.35;;
17842;SDS011;69286;48.222;16.332;2023-06-26T07:59:20;2.75;;;2.55;;
17842;SDS011;69286;48.222;16.332;2023-06-26T08:01:49;4.25;;;2.88;;
17842;SDS011;69286;48.222;16.332;2023-06-26T08:04:17;4.53;;;3.05;;
17842;SDS011;69286;48.222;16.332;2023-06-26T08:06:45;3.20;;;3.00;;
17842;SDS011;69286;48.222;16.332;2023-06-26T08:09:12;3.10;;;2.90;;
17842;SDS011;69286;48.222;16.332;2023-06-26T08:11:39;3.45;;;2.90;;
17842;SDS011;69286;48.222;16.332;2023-06-26T08:14:06;3.60;;;3.20;;
17842;SDS011;69286;48.222;16.332;2023-06-26T08:16:33;4.30;;;3.30;;
17842;SDS011;69286;48.222;16.332;2023-06-26T08:19:02;3.97;;;3.13;;
17842;SDS011;69286;48.222;16.332;2023-06-26T08:21:29;5.43;;;3.08;;
17842;SDS011;69286;48.222;16.332;2023-06-26T08:23:56;3.60;;;3.30;;
17842;SDS011;69286;48.222;16.332;2023-06-26T08:26:23;6.15;;;3.22;;
17842;SDS011;69286;48.222;16.332;2023-06-26T08:28:50;4.05;;;3.50;;
17842;SDS011;69286;48.222;16.332;2023-06-26T08:31:17;4.63;;;3.70;;
17842;SDS011;69286;48.222;16.332;2023-06-26T08:33:44;4.20;;;3.15;;
17842;SDS011;69286;48.222;16.332;2023-06-26T08:36:13;5.63;;;3.25;;
17842;SDS011;69286;48.222;16.332;2023-06-26T08:38:40;3.78;;;3.38;;
17842;SDS011;69286;48.222;16.332;2023-06-26T08:41:07;6.03;;;3.28;;
17842;SDS011;69286;48.222;16.332;2023-06-26T08:43:35;3.60;;;3.20;;
17842;SDS011;69286;48.222;16.332;2023-06-26T08:46:02;3.60;;;3.30;;
17842;SDS011;69286;48.222;16.332;2023-06-26T08:48:29;5.85;;;3.42;;
17842;SDS011;69286;48.222;16.332;2023-06-26T08:51:00;3.83;;;2.97;;
17842;SDS011;69286;48.222;16.332;2023-06-26T08:53:36;3.40;;;3.10;;
17842;SDS011;69286;48.222;16.332;2023-06-26T08:56:11;3.40;;;3.10;;
17842;SDS011;69286;48.222;16.332;2023-06-26T08:58:39;4.03;;;3.22;;
17842;SDS011;69286;48.222;16.332;2023-06-26T09:01:06;4.13;;;3.35;;
17842;SDS011;69286;48.222;16.332;2023-06-26T09:03:33;3.67;;;3.38;;
17842;SDS011;69286;48.222;16.332;2023-06-26T09:06:01;7.30;;;3.78;;
17842;SDS011;69286;48.222;16.332;2023-06-26T09:08:29;5.00;;;3.75;;
17842;SDS011;69286;48.222;16.332;2023-06-26T09:10:57;6.72;;;3.72;;
17842;SDS011;69286;48.222;16.332;2023-06-26T09:13:24;5.22;;;3.72;;
17842;SDS011;69286;48.222;16.332;2023-06-26T09:15:52;6.78;;;3.67;;
17842;SDS011;69286;48.222;16.332;2023-06-26T09:18:21;6.00;;;3.30;;
17842;SDS011;69286;48.222;16.332;2023-06-26T09:20:48;3.95;;;3.58;;
17842;SDS011;69286;48.222;16.332;2023-06-26T09:23:15;4.13;;;3.72;;
17842;SDS011;69286;48.222;16.332;2023-06-26T09:25:43;3.35;;;3.05;;
17842;SDS011;69286;48.222;16.332;2023-06-26T09:28:14;6.68;;;3.58;;
17842;SDS011;69286;48.222;16.332;2023-06-26T09:30:41;6.07;;;3.40;;
17842;SDS011;69286;48.222;16.332;2023-06-26T09:33:14;5.70;;;3.65;;
17842;SDS011;69286;48.222;16.332;2023-06-26T09:35:43;4.10;;;3.47;;
17842;SDS011;69286;48.222;16.332;2023-06-26T09:38:10;3.97;;;3.60;;
17842;SDS011;69286;48.222;16.332;2023-06-26T09:40:38;3.60;;;3.30;;
17842;SDS011;69286;48.222;16.332;2023-06-26T09:43:06;5.47;;;3.47;;
17842;SDS011;69286;48.222;16.332;2023-06-26T09:45:35;4.05;;;3.22;;
17842;SDS011;69286;48.222;16.332;2023-06-26T09:48:03;4.20;;;3.30;;
17842;SDS011;69286;48.222;16.332;2023-06-26T09:50:31;6.68;;;3.50;;
17842;SDS011;69286;48.222;16.332;2023-06-26T09:53:02;3.65;;;3.33;;
17842;SDS011;69286;48.222;16.332;2023-06-26T09:55:34;3.42;;;3.13;;
17842;SDS011;69286;48.222;16.332;2023-06-26T09:58:02;3.75;;;3.35;;
17842;SDS011;69286;48.222;16.332;2023-06-26T10:00:29;5.20;;;3.60;;
17842;SDS011;69286;48.222;16.332;2023-06-26T10:02:58;3.92;;;3.58;;
17842;SDS011;69286;48.222;16.332;2023-06-26T10:05:25;3.78;;;3.47;;
17842;SDS011;69286;48.222;16.332;2023-06-26T10:07:52;4.22;;;3.58;;
17842;SDS011;69286;48.222;16.332;2023-06-26T10:10:21;6.88;;;3.58;;
17842;SDS011;69286;48.222;16.332;2023-06-26T10:12:51;7.88;;;3.35;;
17842;SDS011;69286;48.222;16.332;2023-06-26T10:15:25;7.18;;;3.45;;
17842;SDS011;69286;48.222;16.332;2023-06-26T10:17:55;4.75;;;3.55;;
17842;SDS011;69286;48.222;16.332;2023-06-26T10:20:24;4.25;;;3.80;;
17842;SDS011;69286;48.222;16.332;2023-06-26T10:22:52;3.85;;;3.55;;
17842;SDS011;69286;48.222;16.332;2023-06-26T10:25:24;3.92;;;3.35;;
17842;SDS011;69286;48.222;16.332;2023-06-26T10:27:52;8.38;;;6.05;;
17842;SDS011;69286;48.222;16.332;2023-06-26T10:30:23;5.22;;;4.40;;
17842;SDS011;69286;48.222;16.332;2023-06-26T10:32:53;5.10;;;4.10;;
17842;SDS011;69286;48.222;16.332;2023-06-26T10:35:23;4.88;;;3.70;;
17842;SDS011;69286;48.222;16.332;2023-06-26T10:37:51;5.70;;;4.32;;
17842;SDS011;69286;48.222;16.332;2023-06-26T10:40:21;5.65;;;3.78;;
17842;SDS011;69286;48.222;16.332;2023-06-26T10:42:51;5.18;;;4.68;;
17842;SDS011;69286;48.222;16.332;2023-06-26T10:45:32;7.30;;;3.90;;
17842;SDS011;69286;48.222;16.332;2023-06-26T10:48:00;4.85;;;3.72;;
17842;SDS011;69286;48.222;16.332;2023-06-26T10:50:31;4.22;;;3.83;;
17842;SDS011;69286;48.222;16.332;2023-06-26T10:53:13;4.55;;;3.83;;
17842;SDS011;69286;48.222;16.332;2023-06-26T10:55:49;4.05;;;3.65;;
17842;SDS011;69286;48.222;16.332;2023-06-26T10:58:32;4.82;;;3.53;;
17842;SDS011;69286;48.222;16.332;2023-06-26T11:03:48;4.43;;;3.22;;
17842;SDS011;69286;48.222;16.332;2023-06-26T11:06:29;6.93;;;3.97;;
17842;SDS011;69286;48.222;16.332;2023-06-26T11:09:00;4.82;;;3.80;;
17842;SDS011;69286;48.222;16.332;2023-06-26T11:14:29;3.17;;;2.88;;
17842;SDS011;69286;48.222;16.332;2023-06-26T11:16:57;3.67;;;3.33;;
17842;SDS011;69286;48.222;16.332;2023-06-26T11:19:25;3.97;;;3.53;;
17842;SDS011;69286;48.222;16.332;2023-06-26T11:22:05;9.02;;;3.92;;
17842;SDS011;69286;48.222;16.332;2023-06-26T11:24:32;4.22;;;3.78;;
17842;SDS011;69286;48.222;16.332;2023-06-26T11:27:00;3.78;;;3.42;;
17842;SDS011;69286;48.222;16.332;2023-06-26T11:29:29;3.70;;;3.40;;
17842;SDS011;69286;48.222;16.332;2023-06-26T11:32:06;7.65;;;3.70;;
17842;SDS011;69286;48.222;16.332;2023-06-26T11:34:33;4.63;;;4.20;;
17842;SDS011;69286;48.222;16.332;2023-06-26T11:37:02;6.43;;;3.63;;
17842;SDS011;69286;48.222;16.332;2023-06-26T11:39:31;4.57;;;3.47;;
17842;SDS011;69286;48.222;16.332;2023-06-26T11:41:59;4.43;;;3.30;;
17842;SDS011;69286;48.222;16.332;2023-06-26T11:44:28;6.28;;;3.70;;
17842;SDS011;69286;48.222;16.332;2023-06-26T11:46:56;3.50;;;3.20;;
17842;SDS011;69286;48.222;16.332;2023-06-26T11:49:24;5.43;;;3.60;;
17842;SDS011;69286;48.222;16.332;2023-06-26T11:51:52;4.25;;;3.67;;
17842;SDS011;69286;48.222;16.332;2023-06-26T11:54:28;6.78;;;4.93;;
17842;SDS011;69286;48.222;16.332;2023-06-26T11:56:57;4.50;;;4.00;;
17842;SDS011;69286;48.222;16.332;2023-06-26T11:59:24;3.90;;;3.50;;
17842;SDS011;69286;48.222;16.332;2023-06-26T12:02:00;3.67;;;3.25;;
17842;SDS011;69286;48.222;16.332;2023-06-26T12:04:31;4.05;;;3.25;;
17842;SDS011;69286;48.222;16.332;2023-06-26T12:06:59;3.60;;;3.17;;
17842;SDS011;69286;48.222;16.332;2023-06-26T12:09:30;3.95;;;3.22;;
17842;SDS011;69286;48.222;16.332;2023-06-26T12:11:59;3.75;;;3.45;;
17842;SDS011;69286;48.222;16.332;2023-06-26T12:14:27;3.45;;;3.15;;
17842;SDS011;69286;48.222;16.332;2023-06-26T12:16:55;3.55;;;2.90;;
17842;SDS011;69286;48.222;16.332;2023-06-26T12:19:24;5.55;;;3.65;;
17842;SDS011;69286;48.222;16.332;2023-06-26T12:21:52;3.88;;;3.35;;
17842;SDS011;69286;48.222;16.332;2023-06-26T12:24:21;4.15;;;3.53;;
17842;SDS011;69286;48.222;16.332;2023-06-26T12:26:52;4.80;;;3.33;;
17842;SDS011;69286;48.222;16.332;2023-06-26T12:29:22;9.43;;;3.60;;
17842;SDS011;69286;48.222;16.332;2023-06-26T12:31:56;4.90;;;3.78;;
17842;SDS011;69286;48.222;16.332;2023-06-26T12:34:26;4.45;;;3.80;;
17842;SDS011;69286;48.222;16.332;2023-06-26T12:36:58;4.13;;;3.72;;
17842;SDS011;69286;48.222;16.332;2023-06-26T12:39:28;4.07;;;3.53;;
17842;SDS011;69286;48.222;16.332;2023-06-26T12:41:57;4.97;;;3.70;;
17842;SDS011;69286;48.222;16.332;2023-06-26T12:44:28;4.93;;;3.83;;
17842;SDS011;69286;48.222;16.332;2023-06-26T12:46:56;6.07;;;3.60;;
17842;SDS011;69286;48.222;16.332;2023-06-26T12:49:30;5.70;;;3.92;;
17842;SDS011;69286;48.222;16.332;2023-06-26T12:51:59;4.50;;;3.83;;
17842;SDS011;69286;48.222;16.332;2023-06-26T12:54:26;5.47;;;3.60;;
17842;SDS011;69286;48.222;16.332;2023-06-26T12:56:53;13.82;;;4.30;;
17842;SDS011;69286;48.222;16.332;2023-06-26T12:59:22;4.65;;;3.47;;
17842;SDS011;69286;48.222;16.332;2023-06-26T13:01:49;4.18;;;3.78;;
17842;SDS011;69286;48.222;16.332;2023-06-26T13:04:17;4.90;;;3.67;;
17842;SDS011;69286;48.222;16.332;2023-06-26T13:06:44;4.72;;;4.20;;
17842;SDS011;69286;48.222;16.332;2023-06-26T13:09:13;4.28;;;3.83;;
17842;SDS011;69286;48.222;16.332;2023-06-26T13:11:40;8.05;;;3.47;;
17842;SDS011;69286;48.222;16.332;2023-06-26T13:14:07;6.20;;;3.75;;
17842;SDS011;69286;48.222;16.332;2023-06-26T13:16:36;8.27;;;4.00;;
17842;SDS011;69286;48.222;16.332;2023-06-26T13:19:03;4.82;;;4.18;;
17842;SDS011;69286;48.222;16.332;2023-06-26T13:21:30;4.30;;;3.72;;
17842;SDS011;69286;48.222;16.332;2023-06-26T13:23:57;4.50;;;4.03;;
17842;SDS011;69286;48.222;16.332;2023-06-26T13:26:24;4.78;;;3.85;;
17842;SDS011;69286;48.222;16.332;2023-06-26T13:28:53;5.38;;;4.00;;
17842;SDS011;69286;48.222;16.332;2023-06-26T13:31:21;5.50;;;3.83;;
17842;SDS011;69286;48.222;16.332;2023-06-26T13:33:49;4.45;;;3.67;;
17842;SDS011;69286;48.222;16.332;2023-06-26T13:36:18;4.47;;;4.07;;
17842;SDS011;69286;48.222;16.332;2023-06-26T13:38:46;5.10;;;4.07;;
17842;SDS011;69286;48.222;16.332;2023-06-26T13:41:15;4.97;;;4.35;;
17842;SDS011;69286;48.222;16.332;2023-06-26T13:43:44;5.18;;;3.85;;
17842;SDS011;69286;48.222;16.332;2023-06-26T13:46:11;4.70;;;3.92;;
17842;SDS011;69286;48.222;16.332;2023-06-26T13:48:38;5.57;;;4.10;;
17842;SDS011;69286;48.222;16.332;2023-06-26T13:51:07;6.45;;;4.60;;
17842;SDS011;69286;48.222;16.332;2023-06-26T13:53:34;8.15;;;4.70;;
17842;SDS011;69286;48.222;16.332;2023-06-26T13:56:01;5.40;;;4.60;;
17842;SDS011;69286;48.222;16.332;2023-06-26T13:58:28;9.73;;;4.30;;
17842;SDS011;69286;48.222;16.332;2023-06-26T14:00:57;5.07;;;4.53;;
17842;SDS011;69286;48.222;16.332;2023-06-26T14:03:25;5.68;;;4.72;;
17842;SDS011;69286;48.222;16.332;2023-06-26T14:05:53;10.27;;;4.75;;
17842;SDS011;69286;48.222;16.332;2023-06-26T14:08:22;8.68;;;4.72;;
17842;SDS011;69286;48.222;16.332;2023-06-26T14:10:49;6.82;;;4.70;;
17842;SDS011;69286;48.222;16.332;2023-06-26T14:13:16;5.65;;;4.70;;
17842;SDS011;69286;48.222;16.332;2023-06-26T14:15:43;5.43;;;4.10;;
17842;SDS011;69286;48.222;16.332;2023-06-26T14:18:10;6.03;;;5.10;;
17842;SDS011;69286;48.222;16.332;2023-06-26T14:20:37;4.95;;;4.45;;
17842;SDS011;69286;48.222;16.332;2023-06-26T14:23:05;5.20;;;4.70;;
17842;SDS011;69286;48.222;16.332;2023-06-26T14:25:33;4.88;;;4.38;;
17842;SDS011;69286;48.222;16.332;2023-06-26T14:28:00;6.20;;;5.10;;
17842;SDS011;69286;48.222;16.332;2023-06-26T14:30:27;5.28;;;4.78;;
17842;SDS011;69286;48.222;16.332;2023-06-26T14:32:54;6.30;;;4.88;;
17842;SDS011;69286;48.222;16.332;2023-06-26T14:35:21;6.40;;;5.10;;
17842;SDS011;69286;48.222;16.332;2023-06-26T14:37:48;7.68;;;4.75;;
17842;SDS011;69286;48.222;16.332;2023-06-26T14:40:15;5.40;;;4.70;;
17842;SDS011;69286;48.222;16.332;2023-06-26T14:42:44;5.50;;;4.95;;
17842;SDS011;69286;48.222;16.332;2023-06-26T14:45:11;6.63;;;5.88;;